Time;durP1;ratioP1;P1;durP2;ratioP2;P2;SDS_P1;SDS_P2;PMS_P1;PMS_P2;Temp;Humidity;BMP_temperature;BMP_pressure;BME280_temperature;BME280_humidity;BME280_pressure;Samples;Min_cycle;Max_cycle;Signal;HPM_P1;HPM_P2
2022/05/08 00:00:42;;;;;;;12.97;12.17;;;16.20;50.30;;;;;;20672;6713;309047;-73
2022/05/08 00:03:18;;;;;;;13.38;12.48;;;16.20;50.30;;;;;;20756;6713;305585;-72
2022/05/08 00:05:53;;;;;;;13.10;12.00;;;16.30;49.80;;;;;;20939;6713;117308;-73
2022/05/08 00:08:29;;;;;;;13.07;12.27;;;16.00;50.00;;;;;;20972;6713;117283;-73
2022/05/08 00:11:04;;;;;;;14.80;13.70;;;15.60;50.50;;;;;;20637;6713;306998;-73
2022/05/08 00:13:40;;;;;;;14.03;13.00;;;15.60;50.70;;;;;;20960;6713;117612;-72
2022/05/08 00:16:15;;;;;;;12.50;11.67;;;15.50;50.80;;;;;;20953;6713;118771;-73
2022/05/08 00:18:51;;;;;;;13.50;12.50;;;15.30;51.30;;;;;;20955;6713;123116;-73
2022/05/08 00:21:27;;;;;;;14.02;13.13;;;15.00;51.60;;;;;;20605;6713;305809;-72
2022/05/08 00:24:03;;;;;;;15.23;14.03;;;15.30;51.70;;;;;;20734;6713;287959;-72
2022/05/08 00:26:39;;;;;;;14.50;13.60;;;15.60;50.90;;;;;;20765;6713;276068;-73
2022/05/08 00:29:15;;;;;;;14.60;13.50;;;15.90;50.30;;;;;;20971;6713;117266;-73
2022/05/08 00:31:56;;;;;;;14.60;13.60;;;15.60;50.30;;;;;;20556;6713;282833;-73
2022/05/08 00:34:25;;;;;;;15.17;14.10;;;15.60;50.60;;;;;;20708;6713;295257;-73
2022/05/08 00:37:01;;;;;;;13.30;12.20;;;15.80;50.00;;;;;;20954;6713;123066;-73
2022/05/08 00:39:37;;;;;;;13.53;12.53;;;15.50;50.20;;;;;;20956;6713;117307;-73
2022/05/08 00:42:12;;;;;;;15.52;14.50;;;15.20;50.80;;;;;;20507;6713;307868;-73
2022/05/08 00:44:48;;;;;;;12.53;11.80;;;15.20;50.80;;;;;;20962;6713;120049;-73
2022/05/08 00:47:23;;;;;;;14.27;13.27;;;15.10;50.90;;;;;;20956;6713;118481;-73
2022/05/08 00:50:02;;;;;;;13.37;12.37;;;14.80;51.30;;;;;;20939;6713;117556;-73
2022/05/08 00:52:35;;;;;;;15.18;14.18;;;14.70;51.80;;;;;;20751;6713;275861;-73
2022/05/08 00:55:12;;;;;;;14.23;13.23;;;14.70;51.70;;;;;;20975;6713;117638;-73
2022/05/08 00:57:46;;;;;;;13.90;12.90;;;14.70;51.60;;;;;;20951;6713;126628;-73
2022/05/08 01:00:22;;;;;;;13.37;12.23;;;14.50;52.00;;;;;;20921;6713;117741;-73
2022/05/08 01:02:58;;;;;;;11.23;10.43;;;14.20;52.80;;;;;;20967;6713;117118;-73
2022/05/08 01:05:35;;;;;;;12.53;11.63;;;14.20;52.80;;;;;;20949;6713;118856;-73
2022/05/08 01:08:09;;;;;;;13.45;12.65;;;14.10;53.00;;;;;;20727;6713;343783;-73
2022/05/08 01:10:48;;;;;;;13.60;12.70;;;14.50;53.30;;;;;;20870;6713;118916;-73
2022/05/08 01:13:20;;;;;;;14.77;13.80;;;14.60;52.80;;;;;;20743;6713;323132;-72
2022/05/08 01:15:56;;;;;;;13.83;12.70;;;14.80;52.60;;;;;;20932;6713;118819;-72
2022/05/08 01:18:32;;;;;;;13.00;12.20;;;14.70;52.30;;;;;;20960;6713;117584;-73
2022/05/08 01:21:08;;;;;;;13.57;12.57;;;14.30;53.10;;;;;;20842;6713;117180;-73
2022/05/08 01:23:44;;;;;;;13.37;12.30;;;14.30;53.10;;;;;;20936;6713;119464;-73
2022/05/08 01:26:19;;;;;;;13.80;12.70;;;14.20;53.40;;;;;;20967;6713;117888;-72
2022/05/08 01:28:55;;;;;;;15.13;14.10;;;14.00;53.60;;;;;;20747;6713;306333;-71
2022/05/08 01:31:31;;;;;;;14.40;13.50;;;14.80;53.10;;;;;;20589;6713;308671;-72
2022/05/08 01:34:06;;;;;;;14.02;13.23;;;14.80;52.70;;;;;;20718;6713;338935;-72
2022/05/08 01:36:42;;;;;;;14.13;13.33;;;15.20;51.80;;;;;;20749;6713;276005;-72
2022/05/08 01:39:18;;;;;;;16.63;15.53;;;15.60;51.60;;;;;;20750;6713;275864;-72
2022/05/08 01:41:54;;;;;;;13.50;12.60;;;15.60;50.90;;;;;;20741;6713;119299;-72
2022/05/08 01:44:29;;;;;;;16.12;14.93;;;15.30;51.10;;;;;;20754;6713;276801;-72
2022/05/08 01:50:01;;;;;;;16.90;15.60;;;15.00;51.40;;;;;;20717;6713;276681;-72
2022/05/08 01:52:36;;;;;;;16.70;15.60;;;15.10;52.00;;;;;;20741;6713;305847;-72
2022/05/08 01:55:12;;;;;;;15.83;14.73;;;15.30;51.70;;;;;;20748;6713;328612;-72
2022/05/08 01:57:47;;;;;;;14.97;13.87;;;15.40;50.70;;;;;;20936;6713;118377;-72
2022/05/08 02:00:24;;;;;;;16.30;15.20;;;15.10;50.90;;;;;;20702;6713;279614;-72
2022/05/08 02:03:03;;;;;;;16.80;15.73;;;15.20;51.20;;;;;;20742;6713;305657;-72
2022/05/08 02:05:36;;;;;;;15.27;14.17;;;15.20;51.20;;;;;;20962;6713;118549;-72
2022/05/08 02:08:11;;;;;;;15.40;14.27;;;14.90;51.40;;;;;;20939;6712;117223;-72
2022/05/08 02:10:48;;;;;;;15.85;14.85;;;14.60;53.30;;;;;;20662;6713;318580;-72
2022/05/08 02:13:23;;;;;;;14.77;13.63;;;14.50;52.50;;;;;;20955;6713;117219;-72
2022/05/08 02:16:02;;;;;;;13.70;12.80;;;14.40;52.60;;;;;;20946;6713;124024;-72
2022/05/08 02:18:34;;;;;;;14.30;13.30;;;14.20;53.10;;;;;;20737;6713;339651;-72
2022/05/08 02:21:10;;;;;;;13.30;12.50;;;14.40;52.90;;;;;;20843;6713;117222;-72
2022/05/08 02:23:47;;;;;;;15.00;14.00;;;14.30;52.70;;;;;;20732;6713;277594;-72
2022/05/08 02:26:22;;;;;;;14.17;13.20;;;14.50;52.40;;;;;;20964;6713;117271;-72
2022/05/08 02:28:58;;;;;;;16.17;15.07;;;14.40;52.30;;;;;;20734;6713;306040;-72
2022/05/08 02:31:35;;;;;;;16.73;15.63;;;14.70;51.40;;;;;;20594;6713;279334;-72
2022/05/08 02:34:10;;;;;;;15.32;14.32;;;14.70;51.40;;;;;;20734;6713;308969;-72
2022/05/08 02:36:46;;;;;;;14.73;13.83;;;14.90;51.20;;;;;;20745;6713;281357;-72
2022/05/08 02:39:21;;;;;;;15.57;14.47;;;15.00;50.70;;;;;;20745;6713;305190;-72
2022/05/08 02:41:56;;;;;;;12.27;11.57;;;15.20;50.70;;;;;;20744;6713;118222;-72
2022/05/08 02:44:32;;;;;;;11.53;10.80;;;14.90;51.00;;;;;;20956;6713;117293;-72
2022/05/08 02:47:14;;;;;;;13.27;12.48;;;14.50;51.50;;;;;;20738;6713;335020;-72
2022/05/08 02:49:44;;;;;;;13.47;12.57;;;14.40;51.30;;;;;;20949;6713;117381;-72
2022/05/08 02:52:19;;;;;;;15.77;14.77;;;14.30;51.40;;;;;;20519;6784;308208;-72
2022/05/08 02:54:55;;;;;;;17.23;16.03;;;14.30;51.30;;;;;;20751;6713;306589;-72
2022/05/08 03:00:27;;;;;;;13.70;12.70;;;14.40;52.10;;;;;;20914;6713;117917;-72
2022/05/08 03:03:07;;;;;;;16.47;15.37;;;14.30;51.30;;;;;;20745;6713;306573;-71
2022/05/08 03:05:42;;;;;;;14.17;13.07;;;14.40;52.10;;;;;;20965;6713;118856;-72
2022/05/08 03:08:18;;;;;;;13.80;12.70;;;14.20;52.20;;;;;;20964;6713;117876;-72
2022/05/08 03:13:50;;;;;;;13.57;12.50;;;13.40;53.60;;;;;;20939;6713;118404;-73
2022/05/08 03:16:27;;;;;;;14.03;13.03;;;13.40;53.60;;;;;;20962;6713;117373;-72
2022/05/08 03:19:01;;;;;;;13.13;11.97;;;13.30;54.00;;;;;;20959;6713;122789;-72
2022/05/08 03:21:38;;;;;;;15.93;14.93;;;13.50;54.30;;;;;;20568;6713;337849;-72
2022/05/08 03:24:13;;;;;;;14.03;13.03;;;13.50;54.20;;;;;;20946;6713;118813;-72
2022/05/08 03:26:48;;;;;;;15.30;14.10;;;13.60;54.00;;;;;;20956;6713;117614;-72
2022/05/08 03:29:24;;;;;;;17.55;16.35;;;13.40;54.10;;;;;;20749;6713;309826;-72
2022/05/08 03:32:02;;;;;;;17.53;16.33;;;13.70;54.20;;;;;;20526;6713;313193;-73
2022/05/08 03:34:36;;;;;;;17.53;16.33;;;14.10;53.60;;;;;;20753;6713;276695;-72
2022/05/08 03:37:12;;;;;;;14.73;13.77;;;14.40;52.70;;;;;;20955;6713;117756;-72
2022/05/08 03:39:47;;;;;;;16.70;15.52;;;14.20;52.60;;;;;;20739;6713;276755;-72
2022/05/08 03:42:24;;;;;;;16.97;15.70;;;14.50;51.80;;;;;;20521;6784;282945;-72
2022/05/08 03:44:59;;;;;;;16.30;15.20;;;14.50;51.80;;;;;;20748;6713;334767;-72
2022/05/08 03:47:35;;;;;;;14.45;13.57;;;14.70;51.10;;;;;;20740;6713;309945;-72
2022/05/08 03:50:10;;;;;;;15.10;14.00;;;14.80;51.00;;;;;;20916;6713;117061;-72
2022/05/08 03:52:46;;;;;;;14.10;13.03;;;14.50;51.20;;;;;;20963;6713;117322;-73
2022/05/08 03:55:23;;;;;;;15.23;14.23;;;14.10;51.90;;;;;;20742;6713;337274;-72
2022/05/08 03:57:59;;;;;;;14.10;13.03;;;14.20;51.20;;;;;;20939;6713;122027;-73
2022/05/08 04:00:34;;;;;;;13.63;12.47;;;13.90;51.30;;;;;;20892;6713;119043;-72
2022/05/08 04:03:10;;;;;;;14.87;13.98;;;13.70;52.00;;;;;;20744;6713;337591;-72
2022/05/08 04:05:46;;;;;;;14.37;13.47;;;14.00;51.50;;;;;;20723;6713;310616;-72
2022/05/08 04:08:22;;;;;;;15.27;14.07;;;14.00;51.50;;;;;;20746;6713;335621;-72
2022/05/08 04:10:58;;;;;;;12.87;12.07;;;14.00;51.00;;;;;;20842;6713;117332;-72
2022/05/08 04:13:33;;;;;;;15.73;14.73;;;14.00;51.00;;;;;;20737;6713;280958;-72
2022/05/08 04:16:17;;;;;;;16.97;15.77;;;14.10;50.90;;;;;;20702;6713;306525;-72
2022/05/08 04:18:53;;;;;;;15.60;14.57;;;14.30;50.80;;;;;;20946;6713;117817;-72
2022/05/08 04:21:28;;;;;;;15.33;13.87;;;14.10;51.00;;;;;;20802;6713;117224;-72
2022/05/08 04:24:17;;;;;;;14.63;13.50;;;13.70;51.60;;;;;;20950;6713;117253;-73
2022/05/08 04:26:52;;;;;;;14.40;13.40;;;13.40;52.20;;;;;;20942;6713;118420;-72
2022/05/08 04:29:28;;;;;;;13.33;12.33;;;13.20;52.90;;;;;;20955;6713;117541;-73
2022/05/08 04:32:04;;;;;;;16.10;15.10;;;13.10;53.40;;;;;;20529;6713;278899;-72
2022/05/08 04:34:39;;;;;;;17.60;16.40;;;13.40;53.50;;;;;;20743;6713;309489;-72
2022/05/08 04:37:15;;;;;;;15.03;14.07;;;13.90;52.60;;;;;;20742;6713;310462;-72
2022/05/08 04:39:50;;;;;;;16.20;15.20;;;14.20;51.80;;;;;;20719;6713;335026;-73
2022/05/08 04:42:26;;;;;;;14.57;13.50;;;14.40;51.20;;;;;;20728;6784;117816;-74
2022/05/08 04:45:02;;;;;;;13.77;12.80;;;14.30;51.50;;;;;;20923;6724;117134;-73
2022/05/08 04:47:37;;;;;;;14.17;12.97;;;14.00;52.00;;;;;;20904;6724;117292;-72
2022/05/08 04:50:13;;;;;;;14.07;13.07;;;13.70;52.40;;;;;;20830;6741;117148;-71
2022/05/08 04:52:48;;;;;;;13.53;12.60;;;13.50;52.70;;;;;;20890;6726;120363;-71
2022/05/08 04:55:24;;;;;;;14.50;13.60;;;13.40;53.10;;;;;;20676;6730;335692;-71
2022/05/08 04:58:00;;;;;;;13.43;12.63;;;14.10;52.00;;;;;;20670;6730;309837;-73
2022/05/08 05:00:36;;;;;;;13.20;12.40;;;14.10;52.00;;;;;;20824;6741;118090;-71
2022/05/08 05:03:12;;;;;;;13.00;12.13;;;14.10;51.70;;;;;;20743;6710;335033;-74
2022/05/08 05:05:48;;;;;;;13.13;12.23;;;14.20;51.40;;;;;;20885;6732;118452;-72
2022/05/08 05:08:24;;;;;;;14.37;13.47;;;14.10;51.30;;;;;;20698;6725;277818;-72
2022/05/08 05:11:00;;;;;;;12.17;11.27;;;14.30;50.90;;;;;;20856;6721;117346;-71
2022/05/08 05:13:36;;;;;;;12.47;11.67;;;14.20;51.00;;;;;;20681;6729;305621;-71
2022/05/08 05:16:15;;;;;;;12.77;11.97;;;14.30;50.80;;;;;;20903;6726;118872;-71
2022/05/08 05:18:50;;;;;;;13.60;12.60;;;14.20;51.00;;;;;;20692;6726;335957;-74
2022/05/08 05:21:26;;;;;;;13.10;12.40;;;14.30;50.30;;;;;;20631;6715;282270;-69
2022/05/08 05:24:03;;;;;;;12.83;11.83;;;14.50;50.30;;;;;;20914;6719;117149;-70
2022/05/08 05:26:39;;;;;;;12.40;11.60;;;14.60;49.80;;;;;;20652;6745;305187;-69
2022/05/08 05:29:16;;;;;;;13.10;12.20;;;14.60;49.80;;;;;;20923;6726;117330;-69
2022/05/08 05:31:51;;;;;;;12.60;11.70;;;14.50;49.90;;;;;;20747;6741;117960;-69
2022/05/08 05:34:26;;;;;;;11.80;10.87;;;14.30;50.20;;;;;;20869;6741;119374;-68
2022/05/08 05:37:03;;;;;;;12.67;11.77;;;14.00;50.70;;;;;;20874;6739;118437;-68
2022/05/08 05:39:38;;;;;;;13.00;12.10;;;13.80;51.00;;;;;;20811;6758;117647;-69
2022/05/08 05:42:14;;;;;;;14.50;13.62;;;13.70;51.30;;;;;;20533;6730;338489;-67
2022/05/08 05:44:49;;;;;;;14.47;13.67;;;14.00;51.00;;;;;;20680;6735;277173;-67
2022/05/08 05:50:21;;;;;;;13.50;12.60;;;14.70;50.00;;;;;;20861;6735;121125;-69
2022/05/08 05:52:56;;;;;;;13.32;12.57;;;14.60;50.20;;;;;;20659;6736;334501;-69
2022/05/08 05:55:32;;;;;;;12.00;11.20;;;14.70;50.20;;;;;;20916;6730;117397;-69
2022/05/08 05:58:08;;;;;;;12.80;12.00;;;14.70;50.20;;;;;;20641;6735;304404;-69
2022/05/08 06:00:44;;;;;;;14.33;13.43;;;14.90;49.70;;;;;;20606;6736;280260;-74
2022/05/08 06:03:19;;;;;;;13.45;12.65;;;15.20;49.10;;;;;;20670;6736;336939;-68
2022/05/08 06:05:55;;;;;;;12.93;12.03;;;15.40;48.00;;;;;;20829;6743;117769;-69
2022/05/08 06:08:30;;;;;;;13.00;12.03;;;15.30;48.50;;;;;;20935;6721;117360;-71
2022/05/08 06:11:09;;;;;;;13.20;12.30;;;14.70;49.70;;;;;;20790;6736;265548;-70
2022/05/08 06:13:45;;;;;;;15.20;14.20;;;14.70;49.60;;;;;;20679;6736;339339;-76
2022/05/08 06:16:20;;;;;;;15.13;14.13;;;14.90;49.50;;;;;;20726;6721;275833;-73
2022/05/08 06:18:57;;;;;;;14.50;13.57;;;15.60;48.30;;;;;;20731;6721;278491;-72
2022/05/08 06:21:32;;;;;;;14.85;13.93;;;15.60;48.40;;;;;;20593;6721;336739;-74
2022/05/08 06:24:08;;;;;;;12.60;11.90;;;15.80;47.90;;;;;;20814;6739;118814;-72
2022/05/08 06:26:44;;;;;;;13.53;12.47;;;15.30;49.20;;;;;;20867;6742;117342;-72
2022/05/08 06:29:20;;;;;;;13.17;12.43;;;15.30;49.20;;;;;;20660;6742;306723;-71
2022/05/08 06:31:56;;;;;;;12.00;11.30;;;15.50;49.20;;;;;;20720;6726;141999;-69
2022/05/08 06:34:33;;;;;;;13.50;12.55;;;15.80;49.30;;;;;;20659;6743;276573;-71
2022/05/08 06:37:09;;;;;;;14.73;13.83;;;15.80;49.30;;;;;;20656;6741;278666;-71
2022/05/08 06:39:44;;;;;;;14.25;13.27;;;16.20;48.90;;;;;;20722;6726;305312;-69
2022/05/08 06:42:22;;;;;;;13.43;12.63;;;16.90;48.40;;;;;;20485;6798;279973;-69
2022/05/08 06:44:58;;;;;;;12.90;12.00;;;16.90;48.40;;;;;;20820;6756;117408;-70
2022/05/08 06:47:33;;;;;;;12.90;12.10;;;16.80;48.60;;;;;;20820;6756;117351;-69
2022/05/08 06:50:09;;;;;;;14.45;13.52;;;16.60;49.30;;;;;;20649;6726;309337;-68
2022/05/08 06:52:45;;;;;;;13.57;12.50;;;16.70;49.60;;;;;;20959;6715;117119;-69
2022/05/08 06:55:21;;;;;;;12.90;11.90;;;16.60;49.50;;;;;;20900;6729;117110;-69
2022/05/08 06:57:56;;;;;;;9.88;9.27;;;16.50;50.00;;;;;;20639;6741;305127;-68
2022/05/08 07:03:28;;;;;;;8.90;8.27;;;17.30;48.70;;;;;;20880;6741;117786;-70
2022/05/08 07:06:05;;;;;;;9.30;8.70;;;17.70;48.90;;;;;;20911;6725;117146;-69
2022/05/08 07:08:41;;;;;;;8.77;8.17;;;18.00;48.90;;;;;;20922;6725;116939;-68
2022/05/08 07:11:17;;;;;;;9.00;8.50;;;18.10;48.90;;;;;;20569;6749;302196;-69
2022/05/08 07:13:52;;;;;;;8.03;7.63;;;18.50;47.00;;;;;;20881;6736;116980;-68
2022/05/08 07:16:28;;;;;;;7.93;7.53;;;18.90;47.20;;;;;;20960;6715;117431;-69
2022/05/08 07:19:04;;;;;;;8.80;7.93;;;19.00;47.20;;;;;;20955;6706;117334;-68
2022/05/08 07:21:39;;;;;;;9.60;8.90;;;19.00;47.20;;;;;;20588;6730;307031;-68
2022/05/08 07:24:15;;;;;;;8.83;8.43;;;19.40;45.50;;;;;;20953;6721;122896;-72
2022/05/08 07:26:50;;;;;;;8.47;8.07;;;19.50;45.80;;;;;;20980;6706;117297;-70
2022/05/08 07:29:27;;;;;;;9.17;8.67;;;19.80;45.00;;;;;;20726;6721;275544;-70
2022/05/08 07:32:02;;;;;;;10.63;10.03;;;19.80;45.00;;;;;;20751;6721;117748;-69
2022/05/08 07:37:34;;;;;;;15.88;14.85;;;19.70;45.80;;;;;;20731;6721;277568;-71
2022/05/08 07:40:13;;;;;;;14.90;13.93;;;20.00;45.20;;;;;;20895;6721;117836;-71
2022/05/08 07:42:48;;;;;;;14.43;13.53;;;20.10;45.50;;;;;;20896;6721;117154;-70
2022/05/08 07:45:24;;;;;;;16.47;15.20;;;20.30;45.40;;;;;;20773;6706;280950;-70
2022/05/08 07:48:00;;;;;;;16.70;15.40;;;20.20;44.80;;;;;;20757;6706;276060;-71
2022/05/08 07:50:36;;;;;;;16.60;15.50;;;21.00;44.90;;;;;;20605;6741;284393;-70
2022/05/08 07:53:12;;;;;;;16.10;14.80;;;21.00;44.20;;;;;;20817;6729;117447;-70
2022/05/08 07:55:51;;;;;;;16.00;14.67;;;21.10;44.60;;;;;;20857;6741;117708;-71
2022/05/08 07:58:23;;;;;;;16.70;15.60;;;20.90;45.00;;;;;;20731;6719;306935;-71
2022/05/08 08:00:59;;;;;;;15.20;14.13;;;21.10;44.80;;;;;;20774;6749;117302;-70
2022/05/08 08:03:34;;;;;;;15.97;14.77;;;21.20;45.00;;;;;;20772;6706;305491;-71
2022/05/08 08:06:10;;;;;;;15.70;14.80;;;21.40;44.00;;;;;;20749;6705;333999;-71
2022/05/08 08:08:45;;;;;;;14.47;13.47;;;21.80;44.40;;;;;;20899;6734;117133;-71
2022/05/08 08:11:21;;;;;;;13.53;12.53;;;21.90;44.70;;;;;;20845;6720;117171;-71
2022/05/08 08:13:57;;;;;;;13.90;13.00;;;21.80;45.00;;;;;;20974;6706;117268;-71
2022/05/08 08:16:32;;;;;;;13.87;12.97;;;21.70;45.00;;;;;;20728;6721;292587;-71
2022/05/08 08:19:08;;;;;;;13.67;12.70;;;22.00;43.30;;;;;;20947;6721;117981;-71
2022/05/08 08:21:47;;;;;;;15.77;14.77;;;22.20;43.60;;;;;;20589;6726;346878;-71
2022/05/08 08:24:19;;;;;;;14.43;13.20;;;22.50;42.10;;;;;;20873;6739;117733;-70
2022/05/08 08:26:58;;;;;;;13.13;12.23;;;22.60;42.70;;;;;;20902;6736;117289;-70
2022/05/08 08:29:30;;;;;;;12.80;12.10;;;22.60;43.20;;;;;;20865;6742;117349;-71
2022/05/08 08:32:06;;;;;;;11.77;11.07;;;22.60;43.60;;;;;;20729;6729;117657;-69
2022/05/08 08:34:41;;;;;;;11.35;10.65;;;22.70;43.70;;;;;;20695;6729;305781;-71
2022/05/08 08:37:17;;;;;;;10.77;10.13;;;23.00;41.60;;;;;;20970;6712;118078;-70
2022/05/08 08:39:53;;;;;;;11.40;10.50;;;23.60;40.80;;;;;;20638;6741;276057;-71
2022/05/08 08:42:30;;;;;;;11.47;10.87;;;23.60;40.80;;;;;;20699;6730;292751;-71
2022/05/08 08:48:06;;;;;;;11.90;11.10;;;24.20;40.20;;;;;;20651;6742;276806;-71
2022/05/08 08:50:41;;;;;;;10.87;10.07;;;24.40;40.00;;;;;;20813;6743;117262;-71
2022/05/08 08:53:17;;;;;;;11.27;10.57;;;24.50;40.60;;;;;;20718;6727;278070;-71
2022/05/08 08:55:52;;;;;;;11.00;10.30;;;24.60;38.70;;;;;;20852;6741;117369;-72
2022/05/08 08:58:28;;;;;;;11.90;11.10;;;24.50;39.60;;;;;;20637;6749;306268;-71
2022/05/08 09:01:03;;;;;;;10.33;9.83;;;24.50;39.50;;;;;;20788;6739;118007;-71
2022/05/08 09:03:39;;;;;;;11.17;10.50;;;24.30;40.00;;;;;;20886;6739;123401;-71
2022/05/08 09:06:15;;;;;;;11.07;10.47;;;23.90;39.90;;;;;;20649;6741;295077;-71
2022/05/08 09:08:51;;;;;;;11.47;10.77;;;23.90;39.90;;;;;;20866;6744;117414;-71
2022/05/08 09:11:33;;;;;;;10.13;9.53;;;23.70;40.50;;;;;;20745;6749;118196;-71
2022/05/08 09:14:09;;;;;;;9.40;8.80;;;23.50;41.00;;;;;;20927;6721;117122;-71
2022/05/08 09:16:44;;;;;;;10.10;9.40;;;23.30;41.40;;;;;;20945;6721;117233;-71
2022/05/08 09:19:40;;;;;;;9.88;9.27;;;23.20;41.60;;;;;;20718;6720;311405;-71
2022/05/08 09:22:16;;;;;;;9.37;8.77;;;23.50;40.30;;;;;;20752;6720;117375;-71
2022/05/08 09:24:52;;;;;;;9.03;8.53;;;23.60;40.60;;;;;;20941;6720;116810;-71
2022/05/08 09:27:27;;;;;;;9.67;8.97;;;23.50;41.00;;;;;;20730;6721;306128;-71
2022/05/08 09:30:09;;;;;;;8.93;8.27;;;23.60;39.90;;;;;;20903;6721;117231;-71
2022/05/08 09:32:45;;;;;;;8.50;7.90;;;23.60;40.20;;;;;;20678;6735;335480;-71
2022/05/08 09:35:21;;;;;;;8.30;7.70;;;23.80;38.60;;;;;;20935;6721;116906;-70
2022/05/08 09:37:58;;;;;;;7.70;7.30;;;23.80;39.60;;;;;;20934;6717;123453;-70
2022/05/08 09:40:33;;;;;;;6.97;6.57;;;23.80;39.60;;;;;;20873;6721;117177;-71
2022/05/08 09:43:34;;;;;;;7.73;7.23;;;23.80;40.00;;;;;;20958;6715;116715;-71
2022/05/08 09:46:04;;;;;;;7.83;7.33;;;23.90;40.00;;;;;;20664;6732;276214;-71
2022/05/08 09:48:39;;;;;;;7.43;6.93;;;24.30;37.60;;;;;;20902;6732;120876;-71
2022/05/08 09:51:15;;;;;;;7.60;7.00;;;24.50;37.90;;;;;;20611;6724;278440;-69
2022/05/08 09:53:50;;;;;;;7.72;7.20;;;24.80;36.30;;;;;;20688;6725;334547;-69
2022/05/08 09:56:26;;;;;;;7.75;7.25;;;25.10;36.30;;;;;;20711;6725;305738;-71
2022/05/08 09:59:02;;;;;;;7.63;7.23;;;25.30;36.20;;;;;;20715;6739;310098;-71
2022/05/08 10:01:41;;;;;;;5.90;5.60;;;25.60;36.00;;;;;;20762;6736;117019;-70
2022/05/08 10:04:16;;;;;;;6.57;6.27;;;25.60;36.30;;;;;;20956;6726;117035;-70
2022/05/08 10:06:56;;;;;;;6.37;6.00;;;25.30;36.80;;;;;;20880;6741;116976;-70
2022/05/08 10:15:19;;;;;;;6.50;6.10;;;25.10;37.20;;;;;;20937;6721;117318;-70
2022/05/08 10:17:54;;;;;;;6.77;6.33;;;25.00;37.60;;;;;;20914;6777;117406;-70
2022/05/08 10:21:07;;;;;;;6.53;6.13;;;25.00;38.10;;;;;;20840;6777;117602;-69
2022/05/08 10:23:48;;;;;;;7.03;6.47;;;25.00;38.00;;;;;;19711;7049;287919;-71
2022/05/08 10:26:25;;;;;;;6.60;6.10;;;25.30;36.90;;;;;;19905;7049;118825;-70
2022/05/08 10:29:04;;;;;;;6.57;6.18;;;25.40;37.30;;;;;;20182;6776;338186;-70
2022/05/08 10:31:42;;;;;;;6.97;6.57;;;25.60;35.80;;;;;;20581;6720;316630;-70
2022/05/08 10:34:28;;;;;;;6.27;5.87;;;25.90;34.40;;;;;;20911;6724;116785;-70
2022/05/08 10:37:17;;;;;;;5.67;5.40;;;25.90;35.80;;;;;;20936;6724;116981;-71
2022/05/08 10:39:51;;;;;;;6.55;6.15;;;25.80;35.70;;;;;;20736;6708;340882;-71
2022/05/08 10:42:39;;;;;;;7.10;6.70;;;25.90;34.90;;;;;;20479;6797;308760;-71
2022/05/08 10:45:31;;;;;;;5.80;5.50;;;25.80;34.80;;;;;;20810;6756;117009;-70
2022/05/08 10:48:08;;;;;;;5.30;5.00;;;25.40;35.30;;;;;;20778;6807;118584;-69
2022/05/08 10:50:42;;;;;;;5.93;5.53;;;25.40;35.30;;;;;;20633;6730;316420;-70
2022/05/08 10:53:36;;;;;;;6.73;6.30;;;25.40;34.30;;;;;;20725;6721;276594;-70
2022/05/08 10:56:10;;;;;;;6.10;5.80;;;25.40;34.10;;;;;;20925;6721;116802;-71
2022/05/08 10:58:50;;;;;;;6.17;5.77;;;25.10;35.00;;;;;;20729;6721;305773;-71
2022/05/08 11:01:25;;;;;;;6.60;6.20;;;25.10;35.00;;;;;;20621;6715;306544;-71
2022/05/08 11:04:11;;;;;;;6.20;5.70;;;25.20;34.70;;;;;;20956;6706;116976;-71
2022/05/08 11:06:49;;;;;;;6.40;5.93;;;25.10;35.20;;;;;;20895;6736;117444;-71
2022/05/08 11:09:24;;;;;;;6.47;5.93;;;24.80;35.80;;;;;;20688;6736;282928;-71
2022/05/08 11:12:01;;;;;;;6.17;5.77;;;24.70;35.20;;;;;;20694;6736;117482;-71
2022/05/08 11:14:37;;;;;;;6.50;6.03;;;24.70;36.00;;;;;;20696;6736;292126;-70
2022/05/08 11:17:12;;;;;;;6.20;5.70;;;24.80;36.00;;;;;;20894;6736;116816;-70
2022/05/08 11:19:51;;;;;;;6.57;5.97;;;24.80;36.10;;;;;;20875;6736;117003;-71
2022/05/08 11:22:39;;;;;;;6.33;5.80;;;24.50;36.40;;;;;;20666;6807;121185;-71
2022/05/08 11:25:13;;;;;;;6.37;5.87;;;24.30;37.00;;;;;;20754;6706;275965;-71
2022/05/08 11:27:52;;;;;;;6.17;5.77;;;24.50;36.70;;;;;;20926;6721;116845;-71
2022/05/08 11:30:32;;;;;;;6.03;5.73;;;24.60;37.20;;;;;;20633;6736;312536;-70
2022/05/08 11:36:06;;;;;;;6.07;5.67;;;24.50;37.00;;;;;;20905;6725;123045;-71
2022/05/08 11:38:45;;;;;;;5.43;5.23;;;24.20;37.10;;;;;;20866;6744;117889;-71
2022/05/08 11:41:20;;;;;;;6.15;5.80;;;24.00;37.50;;;;;;20533;6743;299668;-71
2022/05/08 11:43:56;;;;;;;5.77;5.47;;;24.10;37.40;;;;;;20933;6717;117408;-71
2022/05/08 11:46:34;;;;;;;5.83;5.50;;;24.10;37.50;;;;;;20948;6717;117063;-71
2022/05/08 11:49:24;;;;;;;5.53;5.17;;;23.90;37.70;;;;;;20950;6717;117324;-70
2022/05/08 11:52:02;;;;;;;5.53;5.22;;;23.70;37.80;;;;;;20522;6717;346732;-71
2022/05/08 11:54:38;;;;;;;5.30;5.10;;;23.90;37.20;;;;;;20957;6717;116995;-70
2022/05/08 11:57:24;;;;;;;4.80;4.60;;;23.90;37.40;;;;;;20953;6717;117649;-70
2022/05/08 12:00:03;;;;;;;5.43;5.13;;;23.70;37.90;;;;;;20924;6718;116979;-70
2022/05/08 12:02:41;;;;;;;11.10;4.50;;;23.70;37.90;;;;;;20913;6724;117016;-70
2022/05/08 12:05:17;;;;;;;4.70;4.50;;;23.70;38.00;;;;;;20924;6725;117095;-70
2022/05/08 12:07:52;;;;;;;5.10;4.70;;;23.70;38.30;;;;;;20847;6754;117371;-70
2022/05/08 12:10:37;;;;;;;4.90;4.53;;;23.70;38.50;;;;;;20816;6743;117635;-70
2022/05/08 12:13:13;;;;;;;4.50;4.20;;;23.80;38.40;;;;;;20912;6726;117469;-71
2022/05/08 12:15:48;;;;;;;4.73;4.53;;;23.90;38.50;;;;;;20640;6741;304738;-71
2022/05/08 12:18:25;;;;;;;4.50;4.30;;;24.20;36.60;;;;;;20864;6742;117348;-71
2022/05/08 12:20:59;;;;;;;4.70;4.30;;;24.30;36.80;;;;;;20814;6725;117988;-69
2022/05/08 12:23:35;;;;;;;4.33;4.13;;;24.20;37.00;;;;;;20705;6725;276472;-69
2022/05/08 12:26:10;;;;;;;4.70;4.30;;;24.40;36.90;;;;;;20883;6728;116845;-69
2022/05/08 12:28:46;;;;;;;4.50;4.23;;;24.40;37.00;;;;;;20966;6713;116770;-69
2022/05/08 12:31:22;;;;;;;5.00;4.70;;;24.30;37.50;;;;;;20818;6728;117696;-69
2022/05/08 12:33:57;;;;;;;4.73;4.50;;;24.20;37.30;;;;;;20903;6728;116928;-70
2022/05/08 12:36:33;;;;;;;3.90;3.80;;;24.00;37.10;;;;;;20920;6728;117827;-69
2022/05/08 12:39:09;;;;;;;4.23;4.00;;;24.00;37.10;;;;;;20910;6733;119625;-69
2022/05/08 12:41:45;;;;;;;4.70;4.30;;;23.90;37.20;;;;;;20783;6728;116934;-71
2022/05/08 12:44:20;;;;;;;4.60;4.30;;;23.80;37.40;;;;;;20651;6742;303194;-70
2022/05/08 12:46:56;;;;;;;4.65;4.43;;;24.10;36.30;;;;;;20651;6744;338415;-71
2022/05/08 12:49:31;;;;;;;4.87;4.57;;;24.50;35.90;;;;;;20908;6726;116982;-70
2022/05/08 12:52:07;;;;;;;4.27;4.00;;;24.50;36.00;;;;;;20480;6718;308501;-70
2022/05/08 12:54:42;;;;;;;4.18;3.97;;;24.60;34.80;;;;;;20714;6725;276096;-70
2022/05/08 13:00:14;;;;;;;3.70;3.40;;;24.60;34.50;;;;;;20895;6718;118501;-70
2022/05/08 13:02:50;;;;;;;3.97;3.63;;;24.60;34.50;;;;;;20673;6738;309996;-70
2022/05/08 13:05:26;;;;;;;3.80;3.60;;;24.70;33.00;;;;;;20613;6756;281851;-70
2022/05/08 13:08:02;;;;;;;5.65;5.35;;;24.60;32.30;;;;;;20601;6759;278465;-70
2022/05/08 13:10:39;;;;;;;3.40;3.20;;;24.80;33.60;;;;;;20656;6726;307278;-71
2022/05/08 13:13:14;;;;;;;3.37;3.17;;;24.80;33.60;;;;;;20921;6726;117283;-70
2022/05/08 13:15:49;;;;;;;3.70;3.43;;;24.50;33.50;;;;;;20842;6744;117398;-71
2022/05/08 13:18:25;;;;;;;3.40;3.10;;;24.10;33.90;;;;;;20824;6759;123064;-69
2022/05/08 13:21:01;;;;;;;3.33;3.13;;;23.50;34.40;;;;;;20778;6744;118038;-70
2022/05/08 13:23:37;;;;;;;3.20;3.10;;;23.40;34.30;;;;;;20883;6738;117007;-70
2022/05/08 13:26:12;;;;;;;4.23;3.93;;;23.20;34.20;;;;;;20817;6754;119734;-70
2022/05/08 13:28:48;;;;;;;3.43;3.17;;;22.90;34.20;;;;;;20697;6730;306478;-70
2022/05/08 13:31:23;;;;;;;3.55;3.35;;;23.00;33.20;;;;;;20584;6736;341335;-70
2022/05/08 13:33:59;;;;;;;2.90;2.80;;;23.20;32.80;;;;;;20802;6756;117635;-70
2022/05/08 13:36:35;;;;;;;3.23;3.00;;;23.00;33.50;;;;;;20882;6730;116824;-70
2022/05/08 13:39:10;;;;;;;3.20;3.00;;;22.80;34.00;;;;;;20616;6744;305830;-71
2022/05/08 13:41:47;;;;;;;3.65;3.35;;;22.80;33.90;;;;;;20506;6744;340905;-71